sensor_id;sensor_type;location;lat;lon;timestamp;P1;durP1;ratioP1;P2;durP2;ratioP2
28188;SDS011;15471;51.166;4.470;2023-02-08T00:01:22;0.40;;;0.40;;
28188;SDS011;15471;51.166;4.470;2023-02-08T00:03:49;0.50;;;0.50;;
28188;SDS011;15471;51.166;4.470;2023-02-08T00:06:16;0.45;;;0.45;;
28188;SDS011;15471;51.166;4.470;2023-02-08T00:08:42;0.50;;;0.50;;
28188;SDS011;15471;51.166;4.470;2023-02-08T00:11:08;0.50;;;0.50;;
28188;SDS011;15471;51.166;4.470;2023-02-08T00:13:37;0.40;;;0.40;;
28188;SDS011;15471;51.166;4.470;2023-02-08T00:16:04;0.50;;;0.50;;
28188;SDS011;15471;51.166;4.470;2023-02-08T00:18:31;0.50;;;0.50;;
28188;SDS011;15471;51.166;4.470;2023-02-08T00:20:57;0.50;;;0.50;;
28188;SDS011;15471;51.166;4.470;2023-02-08T00:23:41;0.50;;;0.50;;
28188;SDS011;15471;51.166;4.470;2023-02-08T00:26:07;0.50;;;0.50;;
28188;SDS011;15471;51.166;4.470;2023-02-08T00:28:34;0.50;;;0.50;;
28188;SDS011;15471;51.166;4.470;2023-02-08T00:31:00;0.50;;;0.50;;
28188;SDS011;15471;51.166;4.470;2023-02-08T00:33:27;0.50;;;0.50;;
28188;SDS011;15471;51.166;4.470;2023-02-08T00:36:03;0.40;;;0.40;;
28188;SDS011;15471;51.166;4.470;2023-02-08T00:38:31;0.50;;;0.50;;
28188;SDS011;15471;51.166;4.470;2023-02-08T00:40:56;0.50;;;0.50;;
28188;SDS011;15471;51.166;4.470;2023-02-08T00:43:22;0.50;;;0.50;;
28188;SDS011;15471;51.166;4.470;2023-02-08T00:45:52;0.50;;;0.50;;
28188;SDS011;15471;51.166;4.470;2023-02-08T00:48:23;0.45;;;0.45;;
28188;SDS011;15471;51.166;4.470;2023-02-08T00:53:48;0.50;;;0.50;;
28188;SDS011;15471;51.166;4.470;2023-02-08T00:56:14;0.50;;;0.50;;
28188;SDS011;15471;51.166;4.470;2023-02-08T00:58:41;0.50;;;0.50;;
28188;SDS011;15471;51.166;4.470;2023-02-08T01:01:07;0.50;;;0.50;;
28188;SDS011;15471;51.166;4.470;2023-02-08T01:03:34;0.50;;;0.50;;
28188;SDS011;15471;51.166;4.470;2023-02-08T01:06:01;0.50;;;0.50;;
28188;SDS011;15471;51.166;4.470;2023-02-08T01:08:31;0.50;;;0.50;;
28188;SDS011;15471;51.166;4.470;2023-02-08T01:13:53;0.50;;;0.50;;
28188;SDS011;15471;51.166;4.470;2023-02-08T01:16:26;0.50;;;0.50;;
28188;SDS011;15471;51.166;4.470;2023-02-08T01:18:54;0.50;;;0.50;;
28188;SDS011;15471;51.166;4.470;2023-02-08T01:21:25;0.50;;;0.50;;
28188;SDS011;15471;51.166;4.470;2023-02-08T01:23:56;0.50;;;0.50;;
28188;SDS011;15471;51.166;4.470;2023-02-08T01:26:23;0.52;;;0.52;;
28188;SDS011;15471;51.166;4.470;2023-02-08T01:28:50;0.50;;;0.50;;
28188;SDS011;15471;51.166;4.470;2023-02-08T01:31:17;0.52;;;0.52;;
28188;SDS011;15471;51.166;4.470;2023-02-08T01:33:46;0.50;;;0.50;;
28188;SDS011;15471;51.166;4.470;2023-02-08T01:36:13;0.57;;;0.57;;
28188;SDS011;15471;51.166;4.470;2023-02-08T01:38:40;0.50;;;0.50;;
28188;SDS011;15471;51.166;4.470;2023-02-08T01:41:08;0.50;;;0.50;;
28188;SDS011;15471;51.166;4.470;2023-02-08T01:46:31;0.50;;;0.50;;
28188;SDS011;15471;51.166;4.470;2023-02-08T01:49:01;0.50;;;0.50;;
28188;SDS011;15471;51.166;4.470;2023-02-08T01:51:31;0.60;;;0.60;;
28188;SDS011;15471;51.166;4.470;2023-02-08T01:54:04;0.60;;;0.60;;
28188;SDS011;15471;51.166;4.470;2023-02-08T01:56:35;0.50;;;0.50;;
28188;SDS011;15471;51.166;4.470;2023-02-08T01:59:04;0.50;;;0.50;;
28188;SDS011;15471;51.166;4.470;2023-02-08T02:01:35;0.60;;;0.60;;
28188;SDS011;15471;51.166;4.470;2023-02-08T02:04:04;0.57;;;0.57;;
28188;SDS011;15471;51.166;4.470;2023-02-08T02:06:34;0.50;;;0.50;;
28188;SDS011;15471;51.166;4.470;2023-02-08T02:09:08;0.60;;;0.60;;
28188;SDS011;15471;51.166;4.470;2023-02-08T02:11:48;0.50;;;0.50;;
28188;SDS011;15471;51.166;4.470;2023-02-08T02:14:16;0.60;;;0.60;;
28188;SDS011;15471;51.166;4.470;2023-02-08T02:16:44;0.50;;;0.50;;
28188;SDS011;15471;51.166;4.470;2023-02-08T02:19:13;0.50;;;0.50;;
28188;SDS011;15471;51.166;4.470;2023-02-08T02:30:16;0.60;;;0.60;;
28188;SDS011;15471;51.166;4.470;2023-02-08T02:32:58;0.60;;;0.60;;
28188;SDS011;15471;51.166;4.470;2023-02-08T02:52:01;0.50;;;0.50;;
28188;SDS011;15471;51.166;4.470;2023-02-08T02:54:50;0.60;;;0.60;;
28188;SDS011;15471;51.166;4.470;2023-02-08T02:57:23;0.70;;;0.70;;
28188;SDS011;15471;51.166;4.470;2023-02-08T02:59:53;0.60;;;0.60;;
28188;SDS011;15471;51.166;4.470;2023-02-08T03:02:19;0.60;;;0.60;;
28188;SDS011;15471;51.166;4.470;2023-02-08T03:04:47;0.60;;;0.60;;
28188;SDS011;15471;51.166;4.470;2023-02-08T03:15:18;0.60;;;0.60;;
28188;SDS011;15471;51.166;4.470;2023-02-08T03:18:36;0.60;;;0.60;;
28188;SDS011;15471;51.166;4.470;2023-02-08T03:32:39;0.63;;;0.63;;
28188;SDS011;15471;51.166;4.470;2023-02-08T03:35:14;0.60;;;0.60;;
28188;SDS011;15471;51.166;4.470;2023-02-08T03:37:57;0.60;;;0.60;;
28188;SDS011;15471;51.166;4.470;2023-02-08T03:40:35;0.60;;;0.60;;
28188;SDS011;15471;51.166;4.470;2023-02-08T03:43:14;0.60;;;0.60;;
28188;SDS011;15471;51.166;4.470;2023-02-08T03:45:55;0.60;;;0.60;;
28188;SDS011;15471;51.166;4.470;2023-02-08T03:48:35;0.60;;;0.60;;
28188;SDS011;15471;51.166;4.470;2023-02-08T03:51:03;0.60;;;0.60;;
28188;SDS011;15471;51.166;4.470;2023-02-08T03:53:30;0.63;;;0.63;;
28188;SDS011;15471;51.166;4.470;2023-02-08T03:56:02;0.60;;;0.60;;
28188;SDS011;15471;51.166;4.470;2023-02-08T03:58:42;0.60;;;0.60;;
28188;SDS011;15471;51.166;4.470;2023-02-08T04:04:37;0.60;;;0.60;;
28188;SDS011;15471;51.166;4.470;2023-02-08T04:07:07;0.60;;;0.60;;
28188;SDS011;15471;51.166;4.470;2023-02-08T04:09:33;0.60;;;0.60;;
28188;SDS011;15471;51.166;4.470;2023-02-08T04:11:59;0.60;;;0.60;;
28188;SDS011;15471;51.166;4.470;2023-02-08T04:14:24;0.60;;;0.60;;
28188;SDS011;15471;51.166;4.470;2023-02-08T04:16:50;0.60;;;0.60;;
28188;SDS011;15471;51.166;4.470;2023-02-08T04:19:16;0.60;;;0.60;;
28188;SDS011;15471;51.166;4.470;2023-02-08T04:21:42;0.65;;;0.65;;
28188;SDS011;15471;51.166;4.470;2023-02-08T04:24:08;0.60;;;0.60;;
28188;SDS011;15471;51.166;4.470;2023-02-08T04:26:34;0.60;;;0.60;;
28188;SDS011;15471;51.166;4.470;2023-02-08T04:29:00;0.60;;;0.60;;
28188;SDS011;15471;51.166;4.470;2023-02-08T04:31:26;0.57;;;0.57;;
28188;SDS011;15471;51.166;4.470;2023-02-08T04:33:51;0.60;;;0.60;;
28188;SDS011;15471;51.166;4.470;2023-02-08T04:36:17;0.60;;;0.60;;
28188;SDS011;15471;51.166;4.470;2023-02-08T04:38:43;0.60;;;0.60;;
28188;SDS011;15471;51.166;4.470;2023-02-08T04:41:09;0.60;;;0.60;;
28188;SDS011;15471;51.166;4.470;2023-02-08T04:43:35;0.60;;;0.60;;
28188;SDS011;15471;51.166;4.470;2023-02-08T04:46:01;0.60;;;0.60;;
28188;SDS011;15471;51.166;4.470;2023-02-08T04:48:27;0.60;;;0.60;;
28188;SDS011;15471;51.166;4.470;2023-02-08T04:50:54;0.60;;;0.60;;
28188;SDS011;15471;51.166;4.470;2023-02-08T04:53:21;0.60;;;0.60;;
28188;SDS011;15471;51.166;4.470;2023-02-08T04:55:51;0.60;;;0.60;;
28188;SDS011;15471;51.166;4.470;2023-02-08T04:58:17;0.60;;;0.60;;
28188;SDS011;15471;51.166;4.470;2023-02-08T05:00:43;0.60;;;0.60;;
28188;SDS011;15471;51.166;4.470;2023-02-08T05:03:09;0.60;;;0.60;;
28188;SDS011;15471;51.166;4.470;2023-02-08T05:05:35;0.60;;;0.60;;
28188;SDS011;15471;51.166;4.470;2023-02-08T05:08:01;0.60;;;0.60;;
28188;SDS011;15471;51.166;4.470;2023-02-08T05:10:27;0.60;;;0.60;;
28188;SDS011;15471;51.166;4.470;2023-02-08T05:12:53;0.60;;;0.60;;
28188;SDS011;15471;51.166;4.470;2023-02-08T05:15:19;0.60;;;0.60;;
28188;SDS011;15471;51.166;4.470;2023-02-08T05:17:45;0.60;;;0.60;;
28188;SDS011;15471;51.166;4.470;2023-02-08T05:20:13;0.60;;;0.60;;
28188;SDS011;15471;51.166;4.470;2023-02-08T05:22:39;0.60;;;0.60;;
28188;SDS011;15471;51.166;4.470;2023-02-08T05:25:05;0.60;;;0.60;;
28188;SDS011;15471;51.166;4.470;2023-02-08T05:27:32;0.70;;;0.70;;
28188;SDS011;15471;51.166;4.470;2023-02-08T05:29:59;0.60;;;0.60;;
28188;SDS011;15471;51.166;4.470;2023-02-08T05:32:25;0.63;;;0.63;;
28188;SDS011;15471;51.166;4.470;2023-02-08T05:34:51;0.70;;;0.70;;
28188;SDS011;15471;51.166;4.470;2023-02-08T05:37:17;0.60;;;0.60;;
28188;SDS011;15471;51.166;4.470;2023-02-08T05:39:43;0.60;;;0.60;;
28188;SDS011;15471;51.166;4.470;2023-02-08T05:42:09;0.70;;;0.70;;
28188;SDS011;15471;51.166;4.470;2023-02-08T05:44:34;0.60;;;0.60;;
28188;SDS011;15471;51.166;4.470;2023-02-08T05:47:00;0.60;;;0.60;;
28188;SDS011;15471;51.166;4.470;2023-02-08T05:49:28;0.60;;;0.60;;
28188;SDS011;15471;51.166;4.470;2023-02-08T05:51:54;0.60;;;0.60;;
28188;SDS011;15471;51.166;4.470;2023-02-08T05:54:19;0.70;;;0.70;;
28188;SDS011;15471;51.166;4.470;2023-02-08T05:56:45;0.70;;;0.70;;
28188;SDS011;15471;51.166;4.470;2023-02-08T05:59:11;0.63;;;0.63;;
28188;SDS011;15471;51.166;4.470;2023-02-08T06:01:37;0.70;;;0.70;;
28188;SDS011;15471;51.166;4.470;2023-02-08T06:04:03;0.60;;;0.60;;
28188;SDS011;15471;51.166;4.470;2023-02-08T06:06:29;0.60;;;0.60;;
28188;SDS011;15471;51.166;4.470;2023-02-08T06:08:55;0.70;;;0.70;;
28188;SDS011;15471;51.166;4.470;2023-02-08T06:11:21;0.70;;;0.70;;
28188;SDS011;15471;51.166;4.470;2023-02-08T06:13:50;0.60;;;0.60;;
28188;SDS011;15471;51.166;4.470;2023-02-08T06:16:16;0.70;;;0.70;;
28188;SDS011;15471;51.166;4.470;2023-02-08T06:18:42;0.60;;;0.60;;
28188;SDS011;15471;51.166;4.470;2023-02-08T06:21:08;0.70;;;0.70;;
28188;SDS011;15471;51.166;4.470;2023-02-08T06:23:34;0.60;;;0.60;;
28188;SDS011;15471;51.166;4.470;2023-02-08T06:26:00;0.70;;;0.70;;
28188;SDS011;15471;51.166;4.470;2023-02-08T06:28:26;0.60;;;0.60;;
28188;SDS011;15471;51.166;4.470;2023-02-08T06:30:52;0.60;;;0.60;;
28188;SDS011;15471;51.166;4.470;2023-02-08T06:33:18;0.60;;;0.60;;
28188;SDS011;15471;51.166;4.470;2023-02-08T06:35:44;0.60;;;0.60;;
28188;SDS011;15471;51.166;4.470;2023-02-08T06:38:11;0.60;;;0.60;;
28188;SDS011;15471;51.166;4.470;2023-02-08T06:40:37;0.70;;;0.70;;
28188;SDS011;15471;51.166;4.470;2023-02-08T06:43:03;0.60;;;0.60;;
28188;SDS011;15471;51.166;4.470;2023-02-08T06:45:29;0.60;;;0.60;;
28188;SDS011;15471;51.166;4.470;2023-02-08T06:47:55;0.60;;;0.60;;
28188;SDS011;15471;51.166;4.470;2023-02-08T06:50:21;0.65;;;0.65;;
28188;SDS011;15471;51.166;4.470;2023-02-08T06:52:47;0.60;;;0.60;;
28188;SDS011;15471;51.166;4.470;2023-02-08T06:55:13;0.60;;;0.60;;
28188;SDS011;15471;51.166;4.470;2023-02-08T06:57:39;0.70;;;0.70;;
28188;SDS011;15471;51.166;4.470;2023-02-08T07:00:05;0.60;;;0.60;;
28188;SDS011;15471;51.166;4.470;2023-02-08T07:02:31;0.60;;;0.60;;
28188;SDS011;15471;51.166;4.470;2023-02-08T07:04:57;0.60;;;0.60;;
28188;SDS011;15471;51.166;4.470;2023-02-08T07:07:23;0.70;;;0.70;;
28188;SDS011;15471;51.166;4.470;2023-02-08T07:09:49;0.63;;;0.63;;
28188;SDS011;15471;51.166;4.470;2023-02-08T07:12:15;0.60;;;0.60;;
28188;SDS011;15471;51.166;4.470;2023-02-08T07:14:41;0.60;;;0.60;;
28188;SDS011;15471;51.166;4.470;2023-02-08T07:17:08;0.63;;;0.63;;
28188;SDS011;15471;51.166;4.470;2023-02-08T07:19:35;0.60;;;0.60;;
28188;SDS011;15471;51.166;4.470;2023-02-08T07:22:01;0.60;;;0.60;;
28188;SDS011;15471;51.166;4.470;2023-02-08T07:24:36;0.70;;;0.70;;
28188;SDS011;15471;51.166;4.470;2023-02-08T07:27:04;0.70;;;0.70;;
28188;SDS011;15471;51.166;4.470;2023-02-08T07:29:31;0.60;;;0.60;;
28188;SDS011;15471;51.166;4.470;2023-02-08T07:31:58;0.60;;;0.60;;
28188;SDS011;15471;51.166;4.470;2023-02-08T07:34:25;0.60;;;0.60;;
28188;SDS011;15471;51.166;4.470;2023-02-08T07:36:53;0.60;;;0.60;;
28188;SDS011;15471;51.166;4.470;2023-02-08T07:39:18;0.60;;;0.60;;
28188;SDS011;15471;51.166;4.470;2023-02-08T07:41:46;0.60;;;0.60;;
28188;SDS011;15471;51.166;4.470;2023-02-08T07:44:12;0.60;;;0.60;;
28188;SDS011;15471;51.166;4.470;2023-02-08T07:46:38;0.70;;;0.70;;
28188;SDS011;15471;51.166;4.470;2023-02-08T07:49:04;0.70;;;0.70;;
28188;SDS011;15471;51.166;4.470;2023-02-08T07:51:30;0.60;;;0.60;;
28188;SDS011;15471;51.166;4.470;2023-02-08T07:53:56;0.60;;;0.60;;
28188;SDS011;15471;51.166;4.470;2023-02-08T07:56:22;0.60;;;0.60;;
28188;SDS011;15471;51.166;4.470;2023-02-08T07:58:48;0.60;;;0.60;;
28188;SDS011;15471;51.166;4.470;2023-02-08T08:01:13;0.60;;;0.60;;
28188;SDS011;15471;51.166;4.470;2023-02-08T08:03:39;0.60;;;0.60;;
28188;SDS011;15471;51.166;4.470;2023-02-08T08:06:05;0.60;;;0.60;;
28188;SDS011;15471;51.166;4.470;2023-02-08T08:08:31;0.60;;;0.60;;
28188;SDS011;15471;51.166;4.470;2023-02-08T08:10:57;0.60;;;0.60;;
28188;SDS011;15471;51.166;4.470;2023-02-08T08:13:23;0.60;;;0.60;;
28188;SDS011;15471;51.166;4.470;2023-02-08T08:15:50;0.55;;;0.55;;
28188;SDS011;15471;51.166;4.470;2023-02-08T08:18:16;0.50;;;0.50;;
28188;SDS011;15471;51.166;4.470;2023-02-08T08:20:42;0.50;;;0.50;;
28188;SDS011;15471;51.166;4.470;2023-02-08T08:23:08;0.55;;;0.55;;
28188;SDS011;15471;51.166;4.470;2023-02-08T08:25:34;0.52;;;0.52;;
28188;SDS011;15471;51.166;4.470;2023-02-08T08:28:01;0.50;;;0.50;;
28188;SDS011;15471;51.166;4.470;2023-02-08T08:30:27;0.50;;;0.50;;
28188;SDS011;15471;51.166;4.470;2023-02-08T08:32:53;0.60;;;0.60;;
28188;SDS011;15471;51.166;4.470;2023-02-08T08:35:19;0.50;;;0.50;;
28188;SDS011;15471;51.166;4.470;2023-02-08T08:37:45;0.50;;;0.50;;
28188;SDS011;15471;51.166;4.470;2023-02-08T08:40:11;0.55;;;0.55;;
28188;SDS011;15471;51.166;4.470;2023-02-08T08:42:37;0.50;;;0.50;;
28188;SDS011;15471;51.166;4.470;2023-02-08T08:45:06;0.40;;;0.40;;
28188;SDS011;15471;51.166;4.470;2023-02-08T08:47:32;0.40;;;0.40;;
28188;SDS011;15471;51.166;4.470;2023-02-08T08:49:58;0.40;;;0.40;;
28188;SDS011;15471;51.166;4.470;2023-02-08T08:52:24;0.40;;;0.40;;
28188;SDS011;15471;51.166;4.470;2023-02-08T08:54:50;0.30;;;0.30;;
28188;SDS011;15471;51.166;4.470;2023-02-08T08:57:16;0.30;;;0.30;;
28188;SDS011;15471;51.166;4.470;2023-02-08T08:59:42;0.20;;;0.20;;
28188;SDS011;15471;51.166;4.470;2023-02-08T09:02:11;0.20;;;0.20;;
28188;SDS011;15471;51.166;4.470;2023-02-08T09:04:38;0.20;;;0.20;;
28188;SDS011;15471;51.166;4.470;2023-02-08T09:07:07;0.20;;;0.20;;
28188;SDS011;15471;51.166;4.470;2023-02-08T09:09:34;0.20;;;0.20;;
28188;SDS011;15471;51.166;4.470;2023-02-08T09:12:01;0.20;;;0.20;;
28188;SDS011;15471;51.166;4.470;2023-02-08T09:14:28;0.10;;;0.10;;
28188;SDS011;15471;51.166;4.470;2023-02-08T09:16:54;0.10;;;0.10;;
28188;SDS011;15471;51.166;4.470;2023-02-08T09:19:20;0.10;;;0.10;;
28188;SDS011;15471;51.166;4.470;2023-02-08T09:21:45;0.10;;;0.10;;
28188;SDS011;15471;51.166;4.470;2023-02-08T09:24:11;0.10;;;0.10;;
28188;SDS011;15471;51.166;4.470;2023-02-08T09:26:37;0.10;;;0.10;;
28188;SDS011;15471;51.166;4.470;2023-02-08T09:29:04;0.10;;;0.10;;
28188;SDS011;15471;51.166;4.470;2023-02-08T09:31:32;0.10;;;0.10;;
28188;SDS011;15471;51.166;4.470;2023-02-08T09:34:00;0.10;;;0.10;;
28188;SDS011;15471;51.166;4.470;2023-02-08T09:36:36;0.10;;;0.10;;
28188;SDS011;15471;51.166;4.470;2023-02-08T09:39:08;0.10;;;0.10;;
28188;SDS011;15471;51.166;4.470;2023-02-08T09:44:47;0.10;;;0.10;;
28188;SDS011;15471;51.166;4.470;2023-02-08T09:50:22;0.00;;;0.00;;
28188;SDS011;15471;51.166;4.470;2023-02-08T09:53:09;0.10;;;0.10;;
28188;SDS011;15471;51.166;4.470;2023-02-08T09:55:47;0.10;;;0.10;;
28188;SDS011;15471;51.166;4.470;2023-02-08T09:58:35;0.10;;;0.10;;
28188;SDS011;15471;51.166;4.470;2023-02-08T10:01:11;0.10;;;0.10;;
28188;SDS011;15471;51.166;4.470;2023-02-08T10:03:43;0.00;;;0.00;;
28188;SDS011;15471;51.166;4.470;2023-02-08T10:06:11;0.00;;;0.00;;
28188;SDS011;15471;51.166;4.470;2023-02-08T10:08:39;0.10;;;0.10;;
28188;SDS011;15471;51.166;4.470;2023-02-08T10:14:34;0.10;;;0.10;;
28188;SDS011;15471;51.166;4.470;2023-02-08T10:30:29;0.13;;;0.13;;
28188;SDS011;15471;51.166;4.470;2023-02-08T10:32:59;0.10;;;0.10;;
28188;SDS011;15471;51.166;4.470;2023-02-08T10:35:30;0.10;;;0.10;;
28188;SDS011;15471;51.166;4.470;2023-02-08T10:38:11;0.10;;;0.10;;
28188;SDS011;15471;51.166;4.470;2023-02-08T10:40:46;0.10;;;0.10;;
28188;SDS011;15471;51.166;4.470;2023-02-08T10:49:10;0.20;;;0.20;;
28188;SDS011;15471;51.166;4.470;2023-02-08T10:51:44;0.20;;;0.20;;
28188;SDS011;15471;51.166;4.470;2023-02-08T10:54:11;0.20;;;0.20;;
28188;SDS011;15471;51.166;4.470;2023-02-08T10:56:43;0.20;;;0.20;;
28188;SDS011;15471;51.166;4.470;2023-02-08T10:59:20;0.20;;;0.20;;
28188;SDS011;15471;51.166;4.470;2023-02-08T11:01:57;0.20;;;0.20;;
28188;SDS011;15471;51.166;4.470;2023-02-08T11:04:24;0.20;;;0.20;;
28188;SDS011;15471;51.166;4.470;2023-02-08T11:06:50;0.20;;;0.20;;
28188;SDS011;15471;51.166;4.470;2023-02-08T11:11:55;0.20;;;0.20;;
28188;SDS011;15471;51.166;4.470;2023-02-08T11:14:24;0.20;;;0.20;;
28188;SDS011;15471;51.166;4.470;2023-02-08T11:16:56;0.20;;;0.20;;
28188;SDS011;15471;51.166;4.470;2023-02-08T11:19:37;0.20;;;0.20;;
28188;SDS011;15471;51.166;4.470;2023-02-08T11:22:16;0.20;;;0.20;;
28188;SDS011;15471;51.166;4.470;2023-02-08T11:24:44;0.20;;;0.20;;
28188;SDS011;15471;51.166;4.470;2023-02-08T11:27:28;0.20;;;0.20;;
28188;SDS011;15471;51.166;4.470;2023-02-08T11:32:34;0.20;;;0.20;;
28188;SDS011;15471;51.166;4.470;2023-02-08T11:37:51;0.20;;;0.20;;
28188;SDS011;15471;51.166;4.470;2023-02-08T11:42:49;0.20;;;0.20;;
28188;SDS011;15471;51.166;4.470;2023-02-08T11:45:21;0.20;;;0.20;;
28188;SDS011;15471;51.166;4.470;2023-02-08T11:47:49;0.20;;;0.20;;
28188;SDS011;15471;51.166;4.470;2023-02-08T11:50:37;0.20;;;0.20;;
28188;SDS011;15471;51.166;4.470;2023-02-08T11:53:06;0.17;;;0.17;;
28188;SDS011;15471;51.166;4.470;2023-02-08T11:56:06;0.20;;;0.20;;
28188;SDS011;15471;51.166;4.470;2023-02-08T11:59:00;0.10;;;0.10;;
28188;SDS011;15471;51.166;4.470;2023-02-08T12:01:41;0.10;;;0.10;;
28188;SDS011;15471;51.166;4.470;2023-02-08T12:04:11;0.10;;;0.10;;
28188;SDS011;15471;51.166;4.470;2023-02-08T12:28:12;0.10;;;0.10;;
28188;SDS011;15471;51.166;4.470;2023-02-08T12:30:52;0.10;;;0.10;;
28188;SDS011;15471;51.166;4.470;2023-02-08T12:54:39;0.10;;;0.10;;
28188;SDS011;15471;51.166;4.470;2023-02-08T12:57:26;0.10;;;0.10;;
28188;SDS011;15471;51.166;4.470;2023-02-08T13:00:04;0.10;;;0.10;;
28188;SDS011;15471;51.166;4.470;2023-02-08T13:03:05;0.10;;;0.10;;
28188;SDS011;15471;51.166;4.470;2023-02-08T13:05:33;0.10;;;0.10;;
28188;SDS011;15471;51.166;4.470;2023-02-08T13:10:52;0.10;;;0.10;;
28188;SDS011;15471;51.166;4.470;2023-02-08T13:13:29;0.10;;;0.10;;
28188;SDS011;15471;51.166;4.470;2023-02-08T13:16:09;0.10;;;0.10;;
28188;SDS011;15471;51.166;4.470;2023-02-08T13:18:43;0.10;;;0.10;;
28188;SDS011;15471;51.166;4.470;2023-02-08T13:21:23;0.10;;;0.10;;
28188;SDS011;15471;51.166;4.470;2023-02-08T13:23:54;0.10;;;0.10;;
28188;SDS011;15471;51.166;4.470;2023-02-08T13:28:55;0.10;;;0.10;;
28188;SDS011;15471;51.166;4.470;2023-02-08T13:31:40;0.10;;;0.10;;
28188;SDS011;15471;51.166;4.470;2023-02-08T13:34:17;0.10;;;0.10;;
28188;SDS011;15471;51.166;4.470;2023-02-08T13:37:15;0.10;;;0.10;;
28188;SDS011;15471;51.166;4.470;2023-02-08T13:39:47;0.10;;;0.10;;
28188;SDS011;15471;51.166;4.470;2023-02-08T13:42:19;0.10;;;0.10;;
28188;SDS011;15471;51.166;4.470;2023-02-08T13:44:52;0.10;;;0.10;;
28188;SDS011;15471;51.166;4.470;2023-02-08T13:47:27;0.10;;;0.10;;
28188;SDS011;15471;51.166;4.470;2023-02-08T13:50:02;0.10;;;0.10;;
28188;SDS011;15471;51.166;4.470;2023-02-08T13:52:49;0.10;;;0.10;;
28188;SDS011;15471;51.166;4.470;2023-02-08T14:01:22;0.10;;;0.10;;
28188;SDS011;15471;51.166;4.470;2023-02-08T14:03:39;0.10;;;0.10;;
28188;SDS011;15471;51.166;4.470;2023-02-08T14:14:25;0.10;;;0.10;;
28188;SDS011;15471;51.166;4.470;2023-02-08T14:17:21;0.10;;;0.10;;
28188;SDS011;15471;51.166;4.470;2023-02-08T14:19:56;0.10;;;0.10;;
28188;SDS011;15471;51.166;4.470;2023-02-08T14:22:25;0.10;;;0.10;;
28188;SDS011;15471;51.166;4.470;2023-02-08T14:24:59;0.10;;;0.10;;
28188;SDS011;15471;51.166;4.470;2023-02-08T14:27:32;0.10;;;0.10;;
28188;SDS011;15471;51.166;4.470;2023-02-08T14:32:40;0.10;;;0.10;;
28188;SDS011;15471;51.166;4.470;2023-02-08T14:35:15;0.10;;;0.10;;
28188;SDS011;15471;51.166;4.470;2023-02-08T14:37:47;0.10;;;0.10;;
28188;SDS011;15471;51.166;4.470;2023-02-08T14:45:33;0.10;;;0.10;;
28188;SDS011;15471;51.166;4.470;2023-02-08T14:50:51;0.10;;;0.10;;
28188;SDS011;15471;51.166;4.470;2023-02-08T14:55:58;0.10;;;0.10;;
28188;SDS011;15471;51.166;4.470;2023-02-08T14:58:36;0.10;;;0.10;;
28188;SDS011;15471;51.166;4.470;2023-02-08T15:01:06;0.10;;;0.10;;
28188;SDS011;15471;51.166;4.470;2023-02-08T15:03:38;0.10;;;0.10;;
28188;SDS011;15471;51.166;4.470;2023-02-08T15:06:17;0.10;;;0.10;;
28188;SDS011;15471;51.166;4.470;2023-02-08T15:11:40;0.10;;;0.10;;
28188;SDS011;15471;51.166;4.470;2023-02-08T15:14:06;0.10;;;0.10;;
28188;SDS011;15471;51.166;4.470;2023-02-08T15:16:43;0.10;;;0.10;;
28188;SDS011;15471;51.166;4.470;2023-02-08T15:19:17;0.10;;;0.10;;
28188;SDS011;15471;51.166;4.470;2023-02-08T15:21:47;0.10;;;0.10;;
28188;SDS011;15471;51.166;4.470;2023-02-08T15:24:15;0.10;;;0.10;;
28188;SDS011;15471;51.166;4.470;2023-02-08T15:26:53;0.10;;;0.10;;
28188;SDS011;15471;51.166;4.470;2023-02-08T15:29:27;0.10;;;0.10;;
28188;SDS011;15471;51.166;4.470;2023-02-08T15:31:54;0.10;;;0.10;;
28188;SDS011;15471;51.166;4.470;2023-02-08T15:34:21;0.10;;;0.10;;
28188;SDS011;15471;51.166;4.470;2023-02-08T15:36:52;0.10;;;0.10;;
28188;SDS011;15471;51.166;4.470;2023-02-08T15:39:26;0.10;;;0.10;;
28188;SDS011;15471;51.166;4.470;2023-02-08T15:42:04;0.10;;;0.10;;
28188;SDS011;15471;51.166;4.470;2023-02-08T15:44:41;0.10;;;0.10;;
28188;SDS011;15471;51.166;4.470;2023-02-08T15:47:11;0.10;;;0.10;;
28188;SDS011;15471;51.166;4.470;2023-02-08T15:50:00;0.10;;;0.10;;
28188;SDS011;15471;51.166;4.470;2023-02-08T15:52:30;0.10;;;0.10;;
28188;SDS011;15471;51.166;4.470;2023-02-08T15:54:59;0.10;;;0.10;;
28188;SDS011;15471;51.166;4.470;2023-02-08T15:57:35;0.10;;;0.10;;
28188;SDS011;15471;51.166;4.470;2023-02-08T16:02:56;0.10;;;0.10;;
28188;SDS011;15471;51.166;4.470;2023-02-08T16:05:32;0.10;;;0.10;;
28188;SDS011;15471;51.166;4.470;2023-02-08T16:07:59;0.10;;;0.10;;
28188;SDS011;15471;51.166;4.470;2023-02-08T16:10:41;0.10;;;0.10;;
28188;SDS011;15471;51.166;4.470;2023-02-08T16:13:15;0.20;;;0.20;;
28188;SDS011;15471;51.166;4.470;2023-02-08T16:15:51;0.10;;;0.10;;
28188;SDS011;15471;51.166;4.470;2023-02-08T16:20:57;0.10;;;0.10;;
28188;SDS011;15471;51.166;4.470;2023-02-08T16:23:26;0.10;;;0.10;;
28188;SDS011;15471;51.166;4.470;2023-02-08T16:25:54;0.10;;;0.10;;
28188;SDS011;15471;51.166;4.470;2023-02-08T16:28:29;0.10;;;0.10;;
28188;SDS011;15471;51.166;4.470;2023-02-08T16:30:57;0.20;;;0.20;;
28188;SDS011;15471;51.166;4.470;2023-02-08T16:33:25;0.10;;;0.10;;
28188;SDS011;15471;51.166;4.470;2023-02-08T16:35:52;0.10;;;0.10;;
28188;SDS011;15471;51.166;4.470;2023-02-08T16:38:26;0.10;;;0.10;;
28188;SDS011;15471;51.166;4.470;2023-02-08T16:40:55;0.10;;;0.10;;
28188;SDS011;15471;51.166;4.470;2023-02-08T16:43:37;0.20;;;0.20;;
28188;SDS011;15471;51.166;4.470;2023-02-08T16:48:34;0.10;;;0.10;;
28188;SDS011;15471;51.166;4.470;2023-02-08T16:51:04;0.20;;;0.20;;
28188;SDS011;15471;51.166;4.470;2023-02-08T16:53:34;0.20;;;0.20;;
28188;SDS011;15471;51.166;4.470;2023-02-08T16:56:00;0.20;;;0.20;;
28188;SDS011;15471;51.166;4.470;2023-02-08T16:58:26;0.20;;;0.20;;
28188;SDS011;15471;51.166;4.470;2023-02-08T17:00:52;0.20;;;0.20;;
28188;SDS011;15471;51.166;4.470;2023-02-08T17:03:18;0.20;;;0.20;;
28188;SDS011;15471;51.166;4.470;2023-02-08T17:05:44;0.20;;;0.20;;
28188;SDS011;15471;51.166;4.470;2023-02-08T17:08:11;0.20;;;0.20;;
28188;SDS011;15471;51.166;4.470;2023-02-08T17:10:40;0.20;;;0.20;;
28188;SDS011;15471;51.166;4.470;2023-02-08T17:13:07;0.20;;;0.20;;
28188;SDS011;15471;51.166;4.470;2023-02-08T17:15:35;0.20;;;0.20;;
28188;SDS011;15471;51.166;4.470;2023-02-08T17:18:01;0.20;;;0.20;;
28188;SDS011;15471;51.166;4.470;2023-02-08T17:20:28;0.20;;;0.20;;
28188;SDS011;15471;51.166;4.470;2023-02-08T17:22:56;0.20;;;0.20;;
28188;SDS011;15471;51.166;4.470;2023-02-08T17:25:23;0.20;;;0.20;;
28188;SDS011;15471;51.166;4.470;2023-02-08T17:27:52;0.20;;;0.20;;
28188;SDS011;15471;51.166;4.470;2023-02-08T17:30:24;0.20;;;0.20;;
28188;SDS011;15471;51.166;4.470;2023-02-08T17:32:52;0.30;;;0.30;;
28188;SDS011;15471;51.166;4.470;2023-02-08T17:35:20;0.20;;;0.20;;
28188;SDS011;15471;51.166;4.470;2023-02-08T17:37:47;0.20;;;0.20;;
28188;SDS011;15471;51.166;4.470;2023-02-08T17:40:15;0.20;;;0.20;;
28188;SDS011;15471;51.166;4.470;2023-02-08T17:42:41;0.20;;;0.20;;
28188;SDS011;15471;51.166;4.470;2023-02-08T17:45:07;0.20;;;0.20;;
28188;SDS011;15471;51.166;4.470;2023-02-08T17:47:34;0.20;;;0.20;;
28188;SDS011;15471;51.166;4.470;2023-02-08T17:50:03;0.30;;;0.30;;
28188;SDS011;15471;51.166;4.470;2023-02-08T17:52:29;0.20;;;0.20;;
28188;SDS011;15471;51.166;4.470;2023-02-08T17:54:55;0.20;;;0.20;;
28188;SDS011;15471;51.166;4.470;2023-02-08T17:57:21;0.20;;;0.20;;
28188;SDS011;15471;51.166;4.470;2023-02-08T17:59:48;0.20;;;0.20;;
28188;SDS011;15471;51.166;4.470;2023-02-08T18:02:14;0.20;;;0.20;;
28188;SDS011;15471;51.166;4.470;2023-02-08T18:04:40;0.20;;;0.20;;
28188;SDS011;15471;51.166;4.470;2023-02-08T18:07:06;0.20;;;0.20;;